Time;durP1;ratioP1;P1;durP2;ratioP2;P2;SDS_P1;SDS_P2;PMS_P1;PMS_P2;Temp;Humidity;BMP_temperature;BMP_pressure;BME280_temperature;BME280_humidity;BME280_pressure;Samples;Min_cycle;Max_cycle;Signal;HPM_P1;HPM_P2
2022/04/17 00:00:38;;;;;;;1.88;1.20;;;;;;;15.32;53.32;101688.19;4980188;28;20473;-85
2022/04/17 00:03:06;;;;;;;3.75;1.45;;;;;;;15.09;53.66;101675.06;4983271;28;20089;-84
2022/04/17 00:05:35;;;;;;;3.08;1.60;;;;;;;15.29;54.06;101707.16;4967573;28;20042;-85
2022/04/17 00:08:02;;;;;;;4.72;1.50;;;;;;;15.34;53.14;101707.59;4967412;28;20059;-84
2022/04/17 00:10:30;;;;;;;2.15;1.20;;;;;;;15.09;52.52;101674.22;4967201;28;20141;-84
2022/04/17 00:12:57;;;;;;;3.42;1.35;;;;;;;15.29;50.93;101704.50;4966776;28;20583;-85
2022/04/17 00:15:25;;;;;;;2.83;1.33;;;;;;;15.21;50.01;101680.28;4972190;28;20051;-84
2022/04/17 00:17:51;;;;;;;4.05;1.55;;;;;;;15.65;48.57;101712.78;4976824;28;20107;-84
2022/04/17 00:20:18;;;;;;;2.38;1.60;;;;;;;14.61;49.29;101611.72;4974705;28;20133;-84
2022/04/17 00:22:45;;;;;;;4.13;1.50;;;;;;;14.98;49.79;101696.59;4967183;28;20530;-84
2022/04/17 00:25:16;;;;;;;5.85;1.50;;;;;;;15.03;50.14;101726.44;4948319;28;20051;-84
2022/04/17 00:27:43;;;;;;;3.90;1.52;;;;;;;14.90;50.19;101693.75;4963418;28;20861;-84
2022/04/17 00:30:10;;;;;;;9.40;1.98;;;;;;;15.01;50.45;101706.16;4962852;28;20077;-85
2022/04/17 00:32:37;;;;;;;6.43;2.25;;;;;;;15.10;50.15;101716.88;4947247;28;20043;-84
2022/04/17 00:35:05;;;;;;;5.00;2.03;;;;;;;14.87;50.36;101686.03;4948352;28;20054;-84
2022/04/17 00:37:32;;;;;;;9.65;2.40;;;;;;;14.99;50.09;101714.31;4962999;28;20047;-83
2022/04/17 00:39:59;;;;;;;4.18;1.95;;;;;;;14.85;50.60;101734.25;4947227;28;20061;-84
2022/04/17 00:42:25;;;;;;;4.07;1.80;;;;;;;14.76;50.45;101708.38;4963181;28;20098;-84
2022/04/17 00:44:52;;;;;;;7.25;1.90;;;;;;;14.64;50.73;101698.78;4946948;28;20137;-84
2022/04/17 00:47:19;;;;;;;8.10;2.28;;;;;;;14.57;51.20;101700.31;4963050;28;20052;-83
2022/04/17 00:49:46;;;;;;;8.13;2.33;;;;;;;14.40;51.33;101675.03;4948273;28;20138;-84
2022/04/17 00:52:14;;;;;;;8.55;2.25;;;;;;;14.72;51.59;101733.69;4946723;29;20441;-84
2022/04/17 00:54:46;;;;;;;8.23;2.90;;;;;;;14.84;51.26;101731.75;4947751;28;20421;-84
2022/04/17 00:57:16;;;;;;;8.98;2.72;;;;;;;14.62;51.28;101690.88;4946716;28;20142;-84
2022/04/17 00:59:48;;;;;;;4.30;2.25;;;;;;;14.45;50.93;101667.47;4948167;28;20043;-84
2022/04/17 01:02:15;;;;;;;7.88;2.35;;;;;;;14.70;50.87;101736.47;4946504;28;20110;-84
2022/04/17 01:04:43;;;;;;;6.47;2.25;;;;;;;14.33;51.62;101696.94;4962608;28;20057;-83
2022/04/17 01:07:10;;;;;;;7.47;2.50;;;;;;;14.19;51.75;101693.78;4947807;29;20051;-84
2022/04/17 01:09:38;;;;;;;4.80;2.05;;;;;;;14.41;51.40;101735.50;4946621;28;20055;-84
2022/04/17 01:12:09;;;;;;;9.63;2.40;;;;;;;14.40;51.56;101729.31;4962764;28;20075;-84
2022/04/17 01:14:41;;;;;;;6.10;2.58;;;;;;;14.35;51.55;101725.34;4947000;29;20051;-83
2022/04/17 01:17:09;;;;;;;8.50;3.00;;;;;;;14.25;51.81;101738.66;4947082;28;20146;-84
2022/04/17 01:19:37;;;;;;;12.95;2.78;;;;;;;14.24;51.83;101745.81;4962592;28;20057;-85
2022/04/17 01:22:08;;;;;;;5.55;2.42;;;;;;;14.27;52.02;101748.25;4962815;28;20062;-85
2022/04/17 01:27:21;;;;;;;7.03;2.25;;;;;;;13.54;52.25;101675.25;4966962;28;20285;-83
2022/04/17 01:29:48;;;;;;;8.07;2.80;;;;;;;13.49;52.70;101684.63;4965876;28;20445;-83
2022/04/17 01:32:15;;;;;;;8.25;2.63;;;;;;;13.76;53.01;101758.84;4966113;28;20054;-83
2022/04/17 01:34:43;;;;;;;9.13;2.88;;;;;;;13.28;53.40;101674.81;4968514;28;20047;-84
2022/04/17 01:37:10;;;;;;;5.97;2.67;;;;;;;13.74;52.93;101726.97;4969530;28;20519;-83
2022/04/17 01:39:36;;;;;;;7.32;2.47;;;;;;;13.79;52.92;101755.94;4969303;28;20070;-83
2022/04/17 01:42:03;;;;;;;7.15;2.55;;;;;;;13.68;52.99;101744.31;4969671;28;20416;-84
2022/04/17 01:44:31;;;;;;;8.48;2.50;;;;;;;13.64;52.99;101740.25;4969382;28;20412;-84
2022/04/17 01:46:59;;;;;;;7.13;2.40;;;;;;;13.26;53.37;101682.06;4969162;28;20421;-83
2022/04/17 01:49:26;;;;;;;7.75;2.75;;;;;;;13.80;52.95;101758.47;4969374;28;20054;-83
2022/04/17 01:51:54;;;;;;;7.03;2.78;;;;;;;13.36;53.20;101696.34;4969061;28;20061;-83
2022/04/17 01:54:22;;;;;;;6.57;2.75;;;;;;;13.74;53.02;101759.00;4970485;28;20157;-83
2022/04/17 01:56:48;;;;;;;8.43;2.83;;;;;;;13.54;53.45;101735.78;4969644;28;20746;-81
2022/04/17 01:59:17;;;;;;;9.80;2.65;;;;;;;13.45;51.02;101743.59;4968986;28;20059;-84
2022/04/17 02:01:44;;;;;;;5.63;2.45;;;;;;;13.60;49.71;101743.28;4968433;28;20062;-83
2022/04/17 02:04:11;;;;;;;4.55;2.25;;;;;;;13.34;49.15;101719.63;4969040;28;20142;-84
2022/04/17 02:06:42;;;;;;;12.13;2.83;;;;;;;13.50;47.59;101729.03;4969867;28;20086;-83
2022/04/17 02:09:11;;;;;;;3.22;2.08;;;;;;;13.09;46.03;101666.63;4968925;28;20047;-83
2022/04/17 02:11:39;;;;;;;8.48;2.05;;;;;;;13.19;45.66;101731.53;4969960;28;20055;-84
2022/04/17 02:14:06;;;;;;;6.60;2.22;;;;;;;12.67;43.63;101637.16;4968690;28;20101;-84
2022/04/17 02:16:33;;;;;;;5.88;1.92;;;;;;;13.29;43.07;101727.16;4969761;28;20626;-85
2022/04/17 02:19:00;;;;;;;6.88;2.10;;;;;;;12.14;43.09;101564.16;4968890;28;20131;-84
2022/04/17 02:21:28;;;;;;;7.53;2.35;;;;;;;13.11;42.48;101739.31;4968865;28;20519;-84
2022/04/17 02:23:55;;;;;;;9.63;2.53;;;;;;;12.65;42.64;101669.28;4954860;28;20645;-84
2022/04/17 02:26:22;;;;;;;13.43;2.50;;;;;;;12.79;42.08;101713.44;4930203;29;20055;-83
2022/04/17 02:28:49;;;;;;;4.68;2.53;;;;;;;12.32;42.29;101646.19;4930155;29;20048;-82
2022/04/17 02:31:16;;;;;;;13.25;2.65;;;;;;;12.80;41.77;101731.13;4930383;29;20272;-84
2022/04/17 02:33:43;;;;;;;7.22;2.97;;;;;;;12.88;41.88;101744.69;4946329;28;20516;-84
2022/04/17 02:36:10;;;;;;;8.60;2.88;;;;;;;12.51;41.63;101693.50;4929869;29;20052;-83
2022/04/17 02:38:36;;;;;;;10.68;2.45;;;;;;;12.68;42.37;101748.94;4930042;29;20094;-84
2022/04/17 02:41:03;;;;;;;5.35;2.90;;;;;;;12.60;42.15;101722.91;4929893;29;20409;-83
2022/04/17 02:43:29;;;;;;;5.95;2.70;;;;;;;12.72;42.36;101757.53;4929884;29;20490;-83
2022/04/17 02:45:56;;;;;;;2.78;2.15;;;;;;;12.62;43.04;101749.41;4928851;29;20126;-84
2022/04/17 02:48:23;;;;;;;7.63;2.35;;;;;;;12.59;43.25;101755.00;4930797;29;20051;-84
2022/04/17 02:50:50;;;;;;;5.97;2.55;;;;;;;12.65;43.31;101764.34;4929423;29;20060;-84
2022/04/17 02:53:17;;;;;;;7.85;2.30;;;;;;;12.59;43.49;101750.50;4929552;29;20402;-84
2022/04/17 02:55:44;;;;;;;5.97;2.70;;;;;;;12.45;43.70;101723.28;4929764;29;20079;-84
2022/04/17 02:58:11;;;;;;;3.47;2.60;;;;;;;12.12;44.33;101693.03;4945822;29;20374;-85
2022/04/17 03:06:10;;;;;;;7.50;2.90;;;;;;;12.50;45.07;101761.91;4930628;29;20425;-84
2022/04/17 03:08:41;;;;;;;5.70;2.40;;;;;;;12.43;44.47;101765.16;4930447;29;20672;-84
2022/04/17 03:11:09;;;;;;;9.30;2.78;;;;;;;12.32;44.86;101755.34;4930985;29;20671;-82
2022/04/17 03:13:36;;;;;;;6.85;2.58;;;;;;;12.33;44.61;101754.38;4929762;29;20074;-83
2022/04/17 03:16:03;;;;;;;10.32;3.00;;;;;;;12.21;45.19;101750.88;4931413;29;20052;-85
2022/04/17 03:18:30;;;;;;;7.70;2.65;;;;;;;12.00;44.61;101724.09;4936996;29;20517;-84
2022/04/17 03:20:58;;;;;;;16.88;2.92;;;;;;;11.33;44.14;101599.75;4933827;29;20040;-84
2022/04/17 03:23:25;;;;;;;7.95;2.88;;;;;;;11.72;44.19;101680.97;4944154;28;20070;-84
2022/04/17 03:25:53;;;;;;;6.43;2.55;;;;;;;12.28;43.76;101768.06;4968907;28;20146;-84
2022/04/17 03:28:19;;;;;;;9.07;2.50;;;;;;;12.04;43.71;101741.53;4967564;28;20054;-84
2022/04/17 03:30:46;;;;;;;14.82;3.03;;;;;;;11.88;43.63;101731.19;4968854;28;20061;-84
2022/04/17 03:33:12;;;;;;;6.95;2.90;;;;;;;11.97;43.30;101740.31;4967685;28;20130;-83
2022/04/17 03:35:39;;;;;;;11.65;3.28;;;;;;;11.41;43.30;101649.66;4967697;28;20715;-84
2022/04/17 03:38:06;;;;;;;11.15;3.20;;;;;;;11.63;42.95;101673.69;4968775;28;20198;-82
2022/04/17 03:40:32;;;;;;;7.20;2.95;;;;;;;12.15;42.94;101773.47;4967427;28;20050;-84
2022/04/17 03:42:59;;;;;;;7.00;3.08;;;;;;;12.07;43.35;101765.25;4967005;28;20133;-85
2022/04/17 03:45:26;;;;;;;10.77;3.42;;;;;;;11.97;43.00;101749.13;4966854;28;20129;-82
2022/04/17 03:47:53;;;;;;;13.10;4.20;;;;;;;11.97;43.06;101759.78;4967084;28;20058;-83
2022/04/17 03:50:19;;;;;;;9.55;3.00;;;;;;;12.13;42.18;101764.75;4966974;28;20508;-83
2022/04/17 03:52:48;;;;;;;16.17;3.50;;;;;;;11.97;42.53;101716.34;4967053;28;20050;-83
2022/04/17 03:55:15;;;;;;;8.70;3.33;;;;;;;11.73;42.91;101730.53;4967100;28;20051;-84
2022/04/17 03:57:42;;;;;;;17.55;4.07;;;;;;;11.98;42.75;101755.28;4966968;28;20412;-83
2022/04/17 04:00:11;;;;;;;9.35;3.92;;;;;;;11.46;42.52;101677.63;4966918;28;20166;-83
2022/04/17 04:02:39;;;;;;;9.98;3.60;;;;;;;11.51;43.08;101687.91;4966660;28;20500;-83
2022/04/17 04:05:08;;;;;;;8.52;2.92;;;;;;;11.82;42.84;101754.72;4966736;28;20450;-83
2022/04/17 04:07:35;;;;;;;10.63;3.15;;;;;;;11.57;42.85;101737.13;4967730;28;20061;-83
2022/04/17 04:10:04;;;;;;;9.88;3.10;;;;;;;11.52;43.57;101753.41;4967138;28;20352;-83
2022/04/17 04:12:30;;;;;;;8.77;3.58;;;;;;;11.58;43.56;101755.63;4968000;28;20043;-82
2022/04/17 04:14:57;;;;;;;8.57;3.38;;;;;;;11.48;43.77;101767.91;4966803;28;20055;-83
2022/04/17 04:17:24;;;;;;;7.00;3.45;;;;;;;11.38;43.90;101748.28;4966860;28;20050;-83
2022/04/17 04:19:50;;;;;;;10.02;3.30;;;;;;;11.61;43.59;101771.34;4966868;28;20051;-83
2022/04/17 04:22:17;;;;;;;13.00;3.55;;;;;;;11.46;43.76;101765.38;4966503;28;20047;-83
2022/04/17 04:24:43;;;;;;;10.25;3.53;;;;;;;11.34;43.59;101767.13;4949572;28;20043;-83
2022/04/17 04:29:55;;;;;;;11.82;3.78;;;;;;;11.17;43.63;101710.84;4948594;28;20098;-83
2022/04/17 04:32:22;;;;;;;8.82;3.63;;;;;;;11.56;43.18;101776.16;4947175;28;20354;-83
2022/04/17 04:34:49;;;;;;;8.35;2.95;;;;;;;11.43;43.91;101780.69;4947350;28;20134;-83
2022/04/17 04:37:15;;;;;;;10.05;3.38;;;;;;;11.41;43.55;101785.25;4947612;28;20059;-84
2022/04/17 04:39:42;;;;;;;6.97;3.22;;;;;;;11.24;43.84;101768.75;4947652;28;20122;-83
2022/04/17 04:42:09;;;;;;;7.80;3.22;;;;;;;11.06;43.86;101730.22;4963382;28;20109;-83
2022/04/17 04:44:35;;;;;;;3.85;3.08;;;;;;;11.23;43.59;101758.22;4946508;28;20063;-83
2022/04/17 04:47:02;;;;;;;6.45;3.55;;;;;;;11.21;43.95;101758.34;4964510;28;20529;-83
2022/04/17 04:49:32;;;;;;;10.80;3.58;;;;;;;11.27;43.69;101771.19;4965475;28;20049;-83
2022/04/17 04:52:03;;;;;;;11.63;3.35;;;;;;;11.09;43.41;101733.53;4964591;28;20141;-83
2022/04/17 04:54:30;;;;;;;7.30;2.92;;;;;;;11.13;43.59;101768.69;4954192;28;20509;-83
2022/04/17 04:56:58;;;;;;;11.25;3.33;;;;;;;11.21;43.47;101776.94;4944554;28;20047;-83
2022/04/17 04:59:25;;;;;;;11.05;3.90;;;;;;;11.24;43.58;101774.06;4946540;28;20051;-84
2022/04/17 05:01:52;;;;;;;14.23;3.50;;;;;;;11.22;43.46;101768.03;4944800;28;20455;-83
2022/04/17 05:04:20;;;;;;;12.93;3.67;;;;;;;11.23;43.36;101780.34;4945236;28;20381;-83
2022/04/17 05:06:47;;;;;;;9.70;3.13;;;;;;;10.97;43.54;101738.88;4944989;28;20513;-83
2022/04/17 05:09:13;;;;;;;19.73;3.38;;;;;;;11.09;43.64;101752.13;4945953;28;20134;-83
2022/04/17 05:11:41;;;;;;;10.95;3.47;;;;;;;11.18;43.45;101771.84;4887484;28;20055;-83
2022/04/17 05:14:09;;;;;;;10.32;3.25;;;;;;;11.16;43.13;101751.66;4885094;28;20548;-83
2022/04/17 05:16:36;;;;;;;9.80;2.80;;;;;;;11.26;42.68;101779.25;4951382;28;20061;-83
2022/04/17 05:19:24;;;;;;;10.63;2.65;;;;;;;11.14;42.89;101754.47;4968643;28;20090;-83
2022/04/17 05:21:56;;;;;;;11.18;3.90;;;;;;;11.34;42.62;101783.06;4968949;28;20628;-83
2022/04/17 05:24:23;;;;;;;;;;;;;;;11.43;42.92;101770.03;4985105;28;20116;-82
2022/04/17 05:26:49;;;;;;;14.02;3.40;;;;;;;11.51;42.53;101773.00;4968051;28;19921;-83
2022/04/17 05:29:16;;;;;;;10.15;3.00;;;;;;;11.37;42.41;101754.56;4984767;28;20068;-83
2022/04/17 05:31:42;;;;;;;14.80;3.65;;;;;;;11.31;41.78;101739.91;4968533;28;20051;-83
2022/04/17 05:34:09;;;;;;;8.73;2.80;;;;;;;11.53;42.25;101773.75;4968200;28;20089;-83
2022/04/17 05:36:36;;;;;;;15.48;3.30;;;;;;;11.47;42.20;101760.91;4968642;28;20159;-82
2022/04/17 05:39:04;;;;;;;9.18;3.03;;;;;;;11.26;42.18;101734.94;4968711;28;20052;-83
2022/04/17 05:41:32;;;;;;;13.43;3.25;;;;;;;11.50;42.43;101771.28;4968683;28;20049;-82
2022/04/17 05:43:59;;;;;;;9.75;3.38;;;;;;;11.66;42.31;101779.00;4967203;28;20053;-83
2022/04/17 05:46:35;;;;;;;6.38;3.08;;;;;;;11.55;43.01;101763.81;4929785;29;20865;-83
2022/04/17 05:49:04;;;;;;;9.55;3.10;;;;;;;11.71;42.17;101775.00;4947601;28;20106;-83
2022/04/17 05:51:36;;;;;;;10.70;3.40;;;;;;;11.57;42.44;101777.00;4947750;28;20143;-83
2022/04/17 05:54:07;;;;;;;12.65;3.30;;;;;;;11.65;42.72;101788.78;4947961;28;20061;-83
2022/04/17 05:56:37;;;;;;;6.68;3.03;;;;;;;11.67;42.09;101776.19;4947967;28;20066;-84
2022/04/17 05:59:05;;;;;;;7.93;3.40;;;;;;;11.63;42.23;101760.63;4948039;28;20055;-83
2022/04/17 06:01:32;;;;;;;11.07;3.25;;;;;;;11.62;42.28;101762.41;4947599;28;20655;-84
2022/04/17 06:04:01;;;;;;;12.98;3.03;;;;;;;11.93;42.34;101789.41;4947518;28;20130;-83
2022/04/17 06:06:28;;;;;;;15.07;3.40;;;;;;;11.73;41.92;101749.16;4963889;28;20058;-82
2022/04/17 06:08:55;;;;;;;10.50;3.03;;;;;;;12.00;41.75;101790.63;4947826;28;20600;-83
2022/04/17 06:11:21;;;;;;;6.50;2.97;;;;;;;11.97;42.03;101777.56;4948008;28;20141;-83
2022/04/17 06:13:48;;;;;;;9.38;3.17;;;;;;;11.28;41.91;101661.22;4949411;28;20058;-83
2022/04/17 06:16:15;;;;;;;11.15;3.22;;;;;;;11.73;41.75;101725.22;4948927;28;20229;-84
2022/04/17 06:18:42;;;;;;;8.88;2.80;;;;;;;11.69;41.63;101710.44;4948636;28;20134;-84
2022/04/17 06:21:10;;;;;;;10.10;2.90;;;;;;;11.89;42.32;101756.88;4946475;28;20150;-83
2022/04/17 06:23:37;;;;;;;8.35;3.00;;;;;;;11.94;42.12;101753.81;4948752;28;20054;-83
2022/04/17 06:26:06;;;;;;;12.88;2.90;;;;;;;12.04;41.77;101730.88;4963359;28;20051;-83
2022/04/17 06:28:33;;;;;;;6.88;3.22;;;;;;;12.36;41.77;101775.47;4963363;28;20059;-84
2022/04/17 06:30:59;;;;;;;6.80;2.90;;;;;;;11.95;41.78;101707.63;4948091;28;20087;-84
2022/04/17 06:33:26;;;;;;;10.23;3.40;;;;;;;12.09;41.77;101735.84;4964917;28;20050;-84
2022/04/17 06:35:53;;;;;;;8.80;3.00;;;;;;;12.15;41.89;101736.22;4950487;28;20090;-84
2022/04/17 06:38:20;;;;;;;8.60;3.20;;;;;;;12.46;41.42;101771.09;4965747;28;20499;-83
2022/04/17 06:40:47;;;;;;;5.57;2.67;;;;;;;12.18;41.69;101733.31;4949950;28;20083;-83
2022/04/17 06:43:14;;;;;;;5.85;3.00;;;;;;;12.34;41.60;101740.09;4965478;28;20043;-84
2022/04/17 06:45:41;;;;;;;5.18;2.78;;;;;;;12.07;41.70;101706.69;4967560;28;20125;-83
2022/04/17 06:48:21;;;;;;;6.45;3.22;;;;;;;12.50;41.43;101766.38;4968247;28;20051;-84
2022/04/17 06:50:51;;;;;;;7.15;3.10;;;;;;;12.02;42.43;101695.56;4968272;28;20053;-84
2022/04/17 06:53:18;;;;;;;12.00;3.28;;;;;;;12.71;42.09;101788.66;4973027;28;20133;-84
2022/04/17 06:55:46;;;;;;;10.82;3.10;;;;;;;12.58;41.07;101753.31;4976519;28;20481;-84
2022/04/17 06:58:14;;;;;;;4.20;2.40;;;;;;;12.66;40.94;101764.19;4972757;28;20047;-84
2022/04/17 07:00:40;;;;;;;8.18;3.28;;;;;;;12.81;40.98;101802.94;4973888;28;20077;-83
2022/04/17 07:03:07;;;;;;;7.82;2.72;;;;;;;12.89;41.05;101796.16;4968965;28;20146;-84
2022/04/17 07:05:34;;;;;;;7.53;3.17;;;;;;;12.78;41.01;101794.34;4969889;28;20578;-83
2022/04/17 07:08:05;;;;;;;6.47;3.60;;;;;;;12.76;40.76;101766.97;4969590;28;20059;-83
2022/04/17 07:10:34;;;;;;;7.50;3.20;;;;;;;12.69;40.66;101757.78;4971145;28;20053;-82
2022/04/17 07:13:00;;;;;;;10.02;3.30;;;;;;;12.96;40.52;101792.91;4968201;28;20568;-82
2022/04/17 07:15:27;;;;;;;5.15;2.78;;;;;;;12.86;39.61;101725.28;4968412;28;20102;-83
2022/04/17 07:17:54;;;;;;;5.03;3.08;;;;;;;13.26;38.82;101752.22;4967931;28;20153;-84
2022/04/17 07:20:22;;;;;;;4.00;2.92;;;;;;;13.09;39.22;101750.09;4968178;28;20060;-84
2022/04/17 07:22:49;;;;;;;5.85;2.70;;;;;;;13.25;38.03;101784.34;4967797;28;20061;-83
2022/04/17 07:25:19;;;;;;;7.55;2.90;;;;;;;13.23;38.01;101780.97;4968994;28;20145;-83
2022/04/17 07:27:48;;;;;;;4.32;2.50;;;;;;;13.17;37.57;101792.13;4969022;28;20462;-84
2022/04/17 07:30:21;;;;;;;5.43;2.42;;;;;;;13.28;38.25;101780.59;4968780;28;20509;-84
2022/04/17 07:32:52;;;;;;;2.50;2.28;;;;;;;13.04;38.49;101761.13;4968804;28;20054;-83
2022/04/17 07:35:20;;;;;;;5.07;2.90;;;;;;;13.47;38.23;101783.47;4948929;28;20051;-83
2022/04/17 07:37:52;;;;;;;4.85;2.50;;;;;;;13.51;37.48;101747.56;4967333;28;20089;-84
2022/04/17 07:40:21;;;;;;;4.07;2.85;;;;;;;13.46;36.70;101745.28;4967747;28;20146;-84
2022/04/17 07:42:49;;;;;;;6.13;2.55;;;;;;;13.64;36.70;101785.59;4983483;28;20508;-83
2022/04/17 07:45:17;;;;;;;5.30;3.00;;;;;;;13.61;36.57;101782.31;4967448;28;20121;-77
2022/04/17 07:47:44;;;;;;;3.50;2.42;;;;;;;13.53;36.65;101782.97;4966957;28;20062;-79
2022/04/17 07:50:14;;;;;;;2.72;2.10;;;;;;;13.60;36.37;101777.97;4966995;28;20143;-78
2022/04/17 07:52:44;;;;;;;5.15;2.70;;;;;;;13.40;37.15;101752.97;4967191;28;20117;-76
2022/04/17 07:55:13;;;;;;;6.82;2.75;;;;;;;13.33;36.53;101739.28;4968276;28;20054;-80
2022/04/17 07:57:56;;;;;;;2.78;2.17;;;;;;;13.53;36.87;101771.47;4967295;28;20054;-79
2022/04/17 08:00:24;;;;;;;4.43;2.55;;;;;;;13.31;36.46;101735.88;4966876;28;20046;-83
2022/04/17 08:03:21;;;;;;;4.60;2.35;;;;;;;13.50;36.32;101761.88;4968091;28;20059;-84
2022/04/17 08:05:49;;;;;;;8.27;2.88;;;;;;;13.33;35.52;101707.28;4967949;28;20049;-84
2022/04/17 08:08:17;;;;;;;3.15;2.17;;;;;;;13.66;36.00;101782.78;4966381;28;20568;-85
2022/04/17 08:10:43;;;;;;;3.05;2.22;;;;;;;13.35;36.47;101732.00;4966872;28;20560;-84
2022/04/17 08:13:10;;;;;;;4.18;2.83;;;;;;;13.85;36.58;101761.59;4966515;28;20050;-84
2022/04/17 08:15:37;;;;;;;6.50;2.00;;;;;;;13.86;36.37;101765.97;4966404;28;20640;-84
2022/04/17 08:18:03;;;;;;;3.40;3.10;;;;;;;13.99;36.03;101767.59;4966397;28;20492;-83
2022/04/17 08:20:30;;;;;;;4.78;2.58;;;;;;;13.59;35.58;101707.78;4967711;28;20051;-82
2022/04/17 08:22:57;;;;;;;5.80;2.75;;;;;;;14.00;36.17;101766.59;4965960;28;20086;-84
2022/04/17 08:25:23;;;;;;;2.45;2.22;;;;;;;13.92;36.06;101766.44;4966583;28;20050;-83
2022/04/17 08:27:52;;;;;;;6.50;2.58;;;;;;;13.53;36.45;101697.59;4966275;28;20065;-83
2022/04/17 08:30:25;;;;;;;4.72;2.70;;;;;;;13.98;35.76;101741.84;4966655;28;20053;-83
2022/04/17 08:32:52;;;;;;;4.20;2.53;;;;;;;13.69;35.88;101681.16;4966321;28;20139;-84
2022/04/17 08:35:19;;;;;;;3.33;2.42;;;;;;;13.76;35.64;101695.66;4966476;28;20050;-84
2022/04/17 08:37:46;;;;;;;7.10;2.60;;;;;;;13.64;36.34;101664.66;4965986;28;20650;-83
2022/04/17 08:40:14;;;;;;;10.25;2.85;;;;;;;14.18;36.17;101751.69;4965979;28;20062;-84
2022/04/17 08:42:41;;;;;;;4.35;2.53;;;;;;;13.68;36.47;101652.75;4966066;28;20412;-84
2022/04/17 08:45:11;;;;;;;5.32;2.45;;;;;;;14.46;35.70;101755.47;4966396;28;20168;-84
2022/04/17 08:47:40;;;;;;;7.00;2.65;;;;;;;13.94;35.75;101681.72;4966461;28;20500;-83
2022/04/17 08:50:14;;;;;;;5.75;2.83;;;;;;;13.56;35.82;101611.13;4966826;28;20894;-84
2022/04/17 08:52:44;;;;;;;5.13;2.72;;;;;;;14.05;35.95;101692.28;4967356;28;20432;-84
2022/04/17 08:55:11;;;;;;;4.43;2.60;;;;;;;14.31;35.71;101708.75;4968429;28;20106;-82
2022/04/17 08:57:37;;;;;;;11.05;2.80;;;;;;;14.53;35.30;101708.56;4968050;28;20097;-84
2022/04/17 09:00:08;;;;;;;5.40;2.08;;;;;;;14.71;35.89;101722.16;4966411;28;20050;-83
2022/04/17 09:02:40;;;;;;;3.75;2.15;;;;;;;14.62;35.85;101725.63;4966168;28;20137;-82
2022/04/17 09:05:10;;;;;;;8.25;2.83;;;;;;;14.18;34.67;101644.88;4966778;28;20138;-83
2022/04/17 09:07:41;;;;;;;2.33;1.98;;;;;;;14.71;34.67;101727.50;4967232;28;20047;-83
2022/04/17 09:10:08;;;;;;;4.25;2.30;;;;;;;14.24;34.31;101638.97;4966196;28;20129;-84
2022/04/17 09:12:35;;;;;;;4.07;2.70;;;;;;;13.96;34.20;101597.84;4966167;28;20082;-84
2022/04/17 09:15:02;;;;;;;4.13;2.50;;;;;;;14.83;34.27;101717.53;4965984;28;20047;-84
2022/04/17 09:17:31;;;;;;;4.90;2.45;;;;;;;14.81;33.82;101710.66;4965940;28;20332;-84
2022/04/17 09:19:58;;;;;;;2.72;2.53;;;;;;;14.86;34.57;101708.41;4966015;28;20229;-83
2022/04/17 09:22:26;;;;;;;8.57;2.90;;;;;;;15.08;33.52;101705.47;4966988;28;20490;-83
2022/04/17 09:24:52;;;;;;;3.40;2.58;;;;;;;14.90;33.76;101661.66;4948980;28;20054;-84
2022/04/17 09:27:25;;;;;;;2.67;2.15;;;;;;;15.03;33.36;101698.88;4962371;28;20138;-84
2022/04/17 09:29:52;;;;;;;4.00;2.58;;;;;;;15.22;32.70;101719.41;4962543;28;20138;-84
2022/04/17 09:32:20;;;;;;;3.92;2.10;;;;;;;15.23;32.71;101697.03;4962648;28;20051;-84
2022/04/17 09:34:50;;;;;;;6.95;2.30;;;;;;;14.93;32.40;101638.19;4947450;28;20066;-84
2022/04/17 09:37:18;;;;;;;3.67;2.40;;;;;;;15.47;32.01;101697.47;4946298;28;20047;-84
2022/04/17 09:39:46;;;;;;;4.35;3.25;;;;;;;15.18;32.62;101638.63;4946879;28;20043;-85
2022/04/17 09:42:19;;;;;;;5.45;2.72;;;;;;;14.92;32.47;101569.66;4947220;28;20612;-83
2022/04/17 09:44:47;;;;;;;5.18;2.47;;;;;;;15.45;32.81;101693.25;4946983;28;20051;-83
2022/04/17 09:47:17;;;;;;;2.50;2.22;;;;;;;15.28;32.38;101638.63;4946901;28;20047;-84
2022/04/17 09:49:55;;;;;;;6.65;2.40;;;;;;;15.55;31.01;101656.59;4962523;28;20138;-84
2022/04/17 09:52:24;;;;;;;4.22;2.50;;;;;;;15.70;32.21;101654.34;4947766;28;20055;-83
2022/04/17 09:54:52;;;;;;;4.00;3.55;;;;;;;16.14;32.26;101666.22;4947016;28;20248;-83
2022/04/17 09:57:29;;;;;;;4.05;2.20;;;;;;;16.37;31.24;101685.41;4949394;28;20082;-84
2022/04/17 09:59:57;;;;;;;4.00;2.10;;;;;;;16.30;31.15;101662.88;4949809;28;20139;-86
2022/04/17 10:02:25;;;;;;;3.50;2.58;;;;;;;16.57;31.38;101669.25;4946889;28;20078;-85
2022/04/17 10:04:52;;;;;;;5.28;2.45;;;;;;;16.20;30.80;101604.00;4963266;28;20323;-84
2022/04/17 10:07:22;;;;;;;4.43;2.47;;;;;;;16.39;29.05;101607.56;4967962;28;20259;-83
2022/04/17 10:09:49;;;;;;;2.63;2.38;;;;;;;16.83;29.76;101667.56;4959214;28;20518;-84
2022/04/17 10:12:19;;;;;;;2.80;1.85;;;;;;;16.82;28.44;101665.88;4952817;28;20133;-82
2022/04/17 10:14:48;;;;;;;7.32;2.00;;;;;;;16.71;29.09;101609.75;4966832;28;20393;-84
2022/04/17 10:17:20;;;;;;;2.58;2.20;;;;;;;16.72;28.21;101598.03;4966520;28;20360;-82
2022/04/17 10:19:47;;;;;;;;;;;;;;;17.05;28.19;101657.38;4967688;28;20133;-83
2022/04/17 10:22:18;;;;;;;4.00;1.85;;;;;;;17.01;28.86;101629.16;4967038;28;19928;-83
2022/04/17 10:24:51;;;;;;;3.88;2.08;;;;;;;16.86;27.69;101604.72;4966641;28;20167;-84
2022/04/17 10:27:25;;;;;;;5.22;1.80;;;;;;;17.15;28.18;101636.69;4966224;28;20055;-83
2022/04/17 10:30:04;;;;;;;11.75;2.35;;;;;;;17.46;28.04;101638.97;4967439;28;20154;-84
2022/04/17 10:33:25;;;;;;;4.63;1.90;;;;;;;17.57;27.32;101636.00;4966405;28;20370;-83
2022/04/17 10:35:57;;;;;;;2.67;2.00;;;;;;;17.74;27.53;101631.56;4906992;29;20317;-83
2022/04/17 10:38:41;;;;;;;6.75;1.98;;;;;;;17.75;27.66;101632.44;4956434;28;20049;-84
2022/04/17 10:41:10;;;;;;;2.90;1.98;;;;;;;17.22;27.94;101487.50;4966526;28;20485;-85
2022/04/17 10:43:42;;;;;;;4.45;2.28;;;;;;;18.05;27.84;101629.28;4969089;28;20555;-85
2022/04/17 10:46:14;;;;;;;3.20;2.17;;;;;;;17.98;27.17;101585.25;4969089;28;20443;-86
2022/04/17 10:48:51;;;;;;;6.88;2.63;;;;;;;17.87;27.37;101577.47;4970414;28;20058;-85
2022/04/17 10:51:30;;;;;;;2.47;1.90;;;;;;;18.19;27.50;101602.81;4968417;28;20135;-85
2022/04/17 10:54:07;;;;;;;3.72;2.05;;;;;;;18.33;27.16;101588.75;4966195;28;20158;-86
2022/04/17 10:56:37;;;;;;;4.18;1.90;;;;;;;18.11;26.41;101526.53;4966608;28;20061;-85
2022/04/17 10:59:18;;;;;;;7.57;2.13;;;;;;;18.41;26.58;101580.69;4966583;28;20286;-85
2022/04/17 11:01:44;;;;;;;3.22;2.53;;;;;;;18.62;26.76;101585.63;4965988;28;20065;-86
2022/04/17 11:04:41;;;;;;;4.35;2.40;;;;;;;18.62;25.75;101555.19;4966153;28;20450;-85
2022/04/17 11:07:09;;;;;;;3.47;1.88;;;;;;;18.67;26.96;101558.25;4959418;28;20055;-86
2022/04/17 11:09:42;;;;;;;9.60;2.60;;;;;;;18.70;26.79;101536.38;4947638;28;20109;-85
2022/04/17 11:12:17;;;;;;;4.85;2.05;;;;;;;19.23;26.20;101599.66;4949596;29;20227;-85
2022/04/17 11:15:02;;;;;;;5.32;2.25;;;;;;;19.09;25.49;101566.19;4958864;28;20105;-86
2022/04/17 11:17:30;;;;;;;3.42;2.47;;;;;;;19.32;24.76;101584.31;4966132;28;20417;-85
2022/04/17 11:19:59;;;;;;;3.67;1.52;;;;;;;19.46;24.31;101591.72;4965836;28;20468;-85
2022/04/17 11:22:31;;;;;;;3.95;1.98;;;;;;;19.10;24.26;101554.41;4965906;28;20465;-85
2022/04/17 11:24:58;;;;;;;6.82;2.08;;;;;;;19.31;24.79;101588.88;4965651;28;20066;-85
2022/04/17 11:27:36;;;;;;;2.83;1.67;;;;;;;19.43;24.41;101574.03;4966006;28;20134;-86
2022/04/17 11:30:04;;;;;;;4.63;2.10;;;;;;;19.39;24.62;101559.25;4942393;28;20482;-85
2022/04/17 11:32:31;;;;;;;1.70;1.60;;;;;;;19.42;24.60;101575.06;4927132;29;20421;-85
2022/04/17 11:35:03;;;;;;;3.83;1.55;;;;;;;19.20;23.92;101533.53;4927115;29;20376;-85
2022/04/17 11:37:31;;;;;;;4.35;1.30;;;;;;;19.31;24.15;101550.34;4926785;29;20119;-85
2022/04/17 11:40:19;;;;;;;3.78;1.67;;;;;;;19.60;23.27;101556.00;4927522;29;20159;-85
2022/04/17 11:42:52;;;;;;;2.20;1.83;;;;;;;19.80;22.41;101567.25;4927188;29;20134;-85